createdAt,value
2018-03-27T08:34:34.602Z,61.40
2018-03-27T08:39:37.865Z,60.67
2018-03-27T08:42:06.687Z,61.57
2018-03-27T08:44:35.115Z,57.53
2018-03-27T08:55:56.130Z,59.87
2018-03-27T08:58:24.441Z,59.50
2018-03-27T09:00:51.975Z,57.20
2018-03-27T09:03:19.454Z,49.17
2018-03-27T09:05:46.979Z,52.80
2018-03-27T09:08:14.449Z,52.07
2018-03-27T09:15:36.780Z,36.30
2018-03-27T09:18:04.261Z,41.13
2018-03-27T09:20:31.734Z,38.57
2018-03-27T09:22:59.991Z,42.63
2018-03-27T09:25:27.470Z,35.87
2018-03-27T09:27:55.714Z,35.93
2018-03-27T09:30:23.231Z,35.83
2018-03-27T09:32:51.727Z,31.10
2018-03-27T09:37:46.278Z,34.40
2018-03-27T09:40:14.592Z,34.53
2018-03-27T09:42:42.063Z,34.87
2018-03-27T09:45:09.576Z,32.60
2018-03-27T09:47:37.155Z,26.17
2018-03-27T09:50:04.638Z,23.13
2018-03-27T09:52:32.136Z,28.90
2018-03-27T09:54:59.671Z,29.03
2018-03-27T09:57:27.165Z,27.90
2018-03-27T09:59:55.440Z,34.40
2018-03-27T10:02:23.787Z,32.50
2018-03-27T10:04:51.286Z,31.93
2018-03-27T10:07:19.599Z,29.77
2018-03-27T10:09:47.095Z,36.17
2018-03-27T10:12:14.665Z,32.97
2018-03-27T10:14:42.977Z,34.40
2018-03-27T10:17:11.281Z,33.03
2018-03-27T10:19:38.827Z,34.27
2018-03-27T10:22:06.443Z,32.17
2018-03-27T10:24:33.952Z,32.60
2018-03-27T10:27:02.427Z,30.80
2018-03-27T10:29:29.905Z,32.63
2018-03-27T10:31:57.384Z,32.27
2018-03-27T10:34:25.677Z,29.70
2018-03-27T10:36:53.207Z,27.70
2018-03-27T10:39:20.672Z,28.13
2018-03-27T10:41:48.942Z,29.37
2018-03-27T10:44:16.400Z,26.87
2018-03-27T10:52:53.328Z,24.87
2018-03-27T10:55:25.119Z,24.80
2018-03-27T10:58:01.829Z,25.97
2018-03-27T11:00:32.984Z,24.73
2018-03-27T11:03:03.480Z,28.20
2018-03-27T11:05:31.263Z,25.60
2018-03-27T11:07:58.807Z,19.90
2018-03-27T11:10:26.406Z,23.80
2018-03-27T11:12:53.959Z,27.40
2018-03-27T11:15:21.572Z,24.23
2018-03-27T11:17:49.105Z,22.20
2018-03-27T11:20:16.606Z,20.00
2018-03-27T11:22:44.139Z,17.27
2018-03-27T11:25:11.678Z,22.17
2018-03-27T11:36:46.069Z,20.10
2018-03-27T11:39:13.625Z,19.17
2018-03-27T11:41:41.177Z,28.67
2018-03-27T11:44:08.793Z,25.83
2018-03-27T12:14:08.595Z,23.20
2018-03-27T12:16:36.125Z,21.00
2018-03-27T12:37:19.430Z,17.23
2018-03-27T12:46:02.709Z,20.90
2018-03-27T12:48:30.725Z,22.10
2018-03-27T12:50:58.255Z,20.20
2018-03-27T12:53:26.527Z,19.47
2018-03-27T12:55:54.002Z,20.30
2018-03-27T12:58:22.254Z,20.93
2018-03-27T13:00:51.906Z,17.13
2018-03-27T13:03:19.430Z,22.93
2018-03-27T13:05:46.930Z,19.27
2018-03-27T13:08:14.421Z,20.37
2018-03-27T13:10:41.890Z,20.13
2018-03-27T13:13:09.380Z,23.50
2018-03-27T13:15:36.883Z,18.83
2018-03-27T13:18:04.369Z,18.40
2018-03-27T13:20:31.853Z,21.70
2018-03-27T13:22:59.312Z,19.80
2018-03-27T13:25:26.797Z,18.63
2018-03-27T13:27:54.307Z,27.20
2018-03-27T13:30:22.571Z,23.43
2018-03-27T13:32:50.075Z,18.37
2018-03-27T13:35:17.568Z,19.13
2018-03-27T13:40:12.096Z,19.30
2018-03-27T13:42:40.349Z,18.97
2018-03-27T13:45:07.851Z,19.07
2018-03-27T13:47:35.334Z,17.30
2018-03-27T13:50:02.828Z,21.40
2018-03-27T13:52:30.354Z,20.27
2018-03-27T13:54:57.850Z,20.17
2018-03-27T14:14:38.592Z,21.77
2018-03-27T15:25:47.789Z,16.80
2018-03-27T15:28:15.292Z,15.93
2018-03-27T15:30:42.764Z,16.27
2018-03-27T15:33:10.284Z,13.67
2018-03-27T15:38:33.795Z,17.10
